Time;durP1;ratioP1;P1;durP2;ratioP2;P2;SDS_P1;SDS_P2;PMS_P1;PMS_P2;Temp;Humidity;BMP_temperature;BMP_pressure;BME280_temperature;BME280_humidity;BME280_pressure;Samples;Min_cycle;Max_cycle;Signal;HPM_P1;HPM_P2
2022/01/17 00:01:15;;;;;;;17.58;2.78;;;5.20;99.90;;;;;;5034041;28;20041;-80
2022/01/17 00:03:40;;;;;;;26.08;2.58;;;5.20;99.90;;;;;;5015769;28;20128;-85
2022/01/17 00:06:06;;;;;;;18.90;3.17;;;5.20;99.90;;;;;;5033846;28;20179;-80
2022/01/17 00:08:33;;;;;;;19.52;2.80;;;5.10;99.90;;;;;;5031952;28;20053;-84
2022/01/17 00:11:00;;;;;;;18.58;2.88;;;5.10;99.90;;;;;;5033090;28;20443;-80
2022/01/17 00:13:29;;;;;;;18.52;2.20;;;5.10;99.90;;;;;;5033753;28;20068;-80
2022/01/17 00:16:09;;;;;;;17.25;3.00;;;5.10;99.90;;;;;;5031271;28;20059;-80
2022/01/17 00:21:06;;;;;;;26.17;2.95;;;5.10;99.90;;;;;;5033532;28;20473;-81
2022/01/17 00:23:33;;;;;;;26.10;2.75;;;5.00;99.90;;;;;;5031832;28;20061;-85
2022/01/17 00:25:59;;;;;;;29.75;2.85;;;5.00;99.90;;;;;;5032858;28;20108;-81
2022/01/17 00:28:24;;;;;;;19.35;2.40;;;5.00;99.90;;;;;;5033613;28;20080;-83
2022/01/17 00:30:50;;;;;;;23.00;3.33;;;5.00;99.90;;;;;;5033055;28;20124;-81
2022/01/17 00:33:16;;;;;;;21.65;3.22;;;5.00;99.90;;;;;;5033210;28;20045;-82
2022/01/17 00:35:42;;;;;;;34.85;3.40;;;5.00;99.90;;;;;;5015634;28;20046;-82
2022/01/17 00:38:08;;;;;;;20.83;2.88;;;5.10;99.90;;;;;;5031329;28;20136;-81
2022/01/17 00:40:34;;;;;;;23.98;2.80;;;5.00;99.90;;;;;;5031292;28;20053;-83
2022/01/17 00:43:00;;;;;;;18.40;2.72;;;5.10;99.90;;;;;;5031541;28;20381;-80
2022/01/17 00:45:29;;;;;;;15.30;2.25;;;5.10;99.90;;;;;;5032970;28;20080;-81
2022/01/17 00:47:56;;;;;;;22.63;2.97;;;5.10;99.90;;;;;;5032634;28;20455;-80
2022/01/17 00:50:24;;;;;;;21.77;2.85;;;5.10;99.90;;;;;;5033336;28;20037;-85
2022/01/17 00:52:49;;;;;;;20.98;2.20;;;5.10;99.90;;;;;;5031311;28;20600;-86
2022/01/17 00:55:15;;;;;;;16.27;2.10;;;5.10;99.90;;;;;;5032250;28;20144;-81
2022/01/17 00:57:41;;;;;;;21.55;3.03;;;5.00;99.90;;;;;;5031684;28;20412;-81
2022/01/17 01:00:08;;;;;;;19.02;2.40;;;5.00;99.90;;;;;;5031573;28;20041;-80
2022/01/17 01:02:34;;;;;;;22.55;2.38;;;5.00;99.90;;;;;;5031746;28;20119;-80
2022/01/17 01:05:00;;;;;;;19.77;2.80;;;5.00;99.90;;;;;;5032629;28;20546;-80
2022/01/17 01:07:26;;;;;;;18.50;2.42;;;4.90;99.90;;;;;;5032259;28;20081;-81
2022/01/17 01:10:07;;;;;;;16.17;2.50;;;4.90;99.90;;;;;;5032849;28;20112;-83
2022/01/17 01:12:33;;;;;;;18.13;2.75;;;4.90;99.90;;;;;;5024892;28;20091;-83
2022/01/17 01:15:00;;;;;;;18.52;2.25;;;4.90;99.90;;;;;;5032612;28;20400;-81
2022/01/17 01:17:35;;;;;;;21.73;3.75;;;5.00;99.90;;;;;;5032213;28;20085;-80
2022/01/17 01:28:18;;;;;;;20.58;2.70;;;4.90;99.90;;;;;;4954231;28;20057;-80
2022/01/17 01:30:45;;;;;;;22.85;3.08;;;4.90;99.90;;;;;;4971074;28;20043;-81
2022/01/17 01:33:11;;;;;;;18.92;2.20;;;5.00;99.90;;;;;;4970896;28;20086;-84
2022/01/17 01:35:45;;;;;;;15.07;2.22;;;4.90;99.90;;;;;;4970842;28;20082;-80
2022/01/17 01:38:10;;;;;;;24.05;2.67;;;4.90;99.90;;;;;;4970960;28;20094;-81
2022/01/17 01:40:36;;;;;;;18.98;2.30;;;4.90;99.90;;;;;;4970395;28;20544;-84
2022/01/17 01:43:02;;;;;;;23.63;2.72;;;4.90;99.90;;;;;;4970387;28;20043;-82
2022/01/17 01:45:28;;;;;;;15.95;2.58;;;4.90;99.90;;;;;;4970456;28;20046;-83
2022/01/17 01:47:54;;;;;;;24.67;2.60;;;4.90;99.90;;;;;;4970678;28;20053;-82
2022/01/17 01:50:20;;;;;;;25.48;2.90;;;4.80;99.90;;;;;;4970613;28;20094;-81
2022/01/17 01:52:46;;;;;;;27.88;3.88;;;4.90;99.90;;;;;;4970538;28;20082;-79
2022/01/17 01:55:15;;;;;;;22.67;3.63;;;4.90;99.90;;;;;;4970499;28;20449;-81
2022/01/17 01:57:42;;;;;;;26.40;2.40;;;4.90;99.90;;;;;;4969878;28;20042;-80
2022/01/17 02:00:09;;;;;;;23.13;2.53;;;4.90;99.90;;;;;;5005197;28;20497;-81
2022/01/17 02:02:35;;;;;;;24.88;2.35;;;4.90;99.90;;;;;;5030966;28;20049;-80
2022/01/17 02:05:01;;;;;;;13.60;2.00;;;4.80;99.90;;;;;;5030291;28;20045;-80
2022/01/17 02:07:27;;;;;;;23.65;2.28;;;4.80;99.90;;;;;;5031519;28;20458;-80
2022/01/17 02:09:53;;;;;;;17.67;2.38;;;4.80;99.90;;;;;;5031185;28;20037;-82
2022/01/17 02:12:28;;;;;;;19.63;3.35;;;4.80;99.90;;;;;;5030373;28;20401;-81
2022/01/17 02:14:54;;;;;;;26.42;3.22;;;4.80;99.90;;;;;;5028915;28;20053;-80
2022/01/17 02:17:23;;;;;;;18.48;2.00;;;4.70;99.90;;;;;;5031324;28;20045;-81
2022/01/17 02:19:53;;;;;;;20.38;2.25;;;4.70;99.90;;;;;;5030901;28;20416;-82
2022/01/17 02:22:19;;;;;;;27.95;3.92;;;4.70;99.90;;;;;;5031180;28;20040;-81
2022/01/17 02:24:45;;;;;;;18.70;2.25;;;4.70;99.90;;;;;;5030610;28;20401;-81
2022/01/17 02:27:10;;;;;;;23.83;2.70;;;4.70;99.90;;;;;;5031256;28;20179;-80
2022/01/17 02:29:36;;;;;;;20.08;1.83;;;5.40;99.90;;;;;;5030612;28;20136;-80
2022/01/17 02:32:02;;;;;;;22.92;2.67;;;4.60;99.90;;;;;;5030595;28;20045;-80
2022/01/17 02:34:28;;;;;;;22.30;2.38;;;4.60;99.90;;;;;;5030832;28;20512;-80
2022/01/17 02:36:53;;;;;;;15.57;2.42;;;4.60;99.90;;;;;;5029077;28;20057;-80
2022/01/17 02:39:19;;;;;;;20.85;2.47;;;4.50;99.90;;;;;;5030691;28;20045;-81
2022/01/17 02:41:49;;;;;;;22.63;2.80;;;4.50;99.90;;;;;;5030531;28;20403;-79
2022/01/17 02:44:15;;;;;;;18.45;2.92;;;4.50;99.90;;;;;;5030756;28;20037;-81
2022/01/17 02:46:41;;;;;;;26.70;2.92;;;4.50;99.90;;;;;;5030150;28;20080;-79
2022/01/17 02:49:08;;;;;;;26.30;3.10;;;4.50;99.90;;;;;;5029045;28;20089;-80
2022/01/17 02:51:34;;;;;;;22.33;2.40;;;4.50;99.90;;;;;;5029232;28;20050;-81
2022/01/17 02:54:00;;;;;;;26.20;3.17;;;4.50;99.90;;;;;;5028822;28;20045;-81
2022/01/17 02:56:26;;;;;;;23.13;3.00;;;4.50;99.90;;;;;;5030194;28;20088;-80
2022/01/17 02:58:52;;;;;;;16.38;2.15;;;4.60;99.90;;;;;;5029139;28;20099;-80
2022/01/17 03:01:24;;;;;;;14.90;2.42;;;4.60;99.90;;;;;;5029696;28;20053;-80
2022/01/17 03:03:50;;;;;;;35.38;4.03;;;4.60;99.90;;;;;;5030686;28;20045;-81
2022/01/17 03:06:16;;;;;;;24.50;3.25;;;4.60;99.90;;;;;;5030286;28;20043;-81
2022/01/17 03:08:43;;;;;;;19.67;2.78;;;4.60;99.90;;;;;;5012887;28;20382;-79
2022/01/17 03:11:12;;;;;;;23.35;2.50;;;4.60;99.90;;;;;;5030133;28;20136;-83
2022/01/17 03:13:39;;;;;;;20.73;2.47;;;4.60;99.90;;;;;;5030001;28;20120;-81
2022/01/17 03:16:16;;;;;;;21.05;2.90;;;4.60;99.90;;;;;;5029842;28;20042;-81
2022/01/17 03:18:50;;;;;;;19.27;2.20;;;4.60;99.90;;;;;;5030243;28;20038;-81
2022/01/17 03:21:16;;;;;;;19.52;3.20;;;4.60;99.90;;;;;;5028664;28;20528;-83
2022/01/17 03:23:44;;;;;;;28.90;3.42;;;4.60;99.90;;;;;;5028823;28;20037;-81
2022/01/17 03:26:10;;;;;;;21.65;2.63;;;4.50;99.90;;;;;;5030436;28;20115;-82
2022/01/17 03:28:36;;;;;;;23.25;3.00;;;4.50;99.90;;;;;;5030158;28;20166;-82
2022/01/17 03:31:03;;;;;;;22.88;2.72;;;4.60;99.90;;;;;;5030193;28;20083;-82
2022/01/17 03:33:29;;;;;;;25.08;2.78;;;4.60;99.90;;;;;;5029849;28;20053;-81
2022/01/17 03:35:55;;;;;;;29.48;2.47;;;4.60;99.90;;;;;;5029917;28;20045;-83
2022/01/17 03:38:24;;;;;;;23.42;2.40;;;4.60;99.90;;;;;;5029899;28;20041;-82
2022/01/17 03:40:51;;;;;;;18.52;2.75;;;4.70;99.90;;;;;;5028574;28;20050;-83
2022/01/17 03:43:21;;;;;;;24.80;3.58;;;4.70;99.90;;;;;;5030059;28;20053;-81
2022/01/17 03:45:49;;;;;;;22.40;2.10;;;4.70;99.90;;;;;;5030216;28;20080;-81
2022/01/17 03:48:15;;;;;;;17.20;2.45;;;4.70;99.90;;;;;;5029898;28;20049;-82
2022/01/17 03:50:41;;;;;;;18.10;2.53;;;4.80;99.90;;;;;;5011394;28;20400;-82
2022/01/17 03:53:07;;;;;;;23.23;2.65;;;4.70;99.90;;;;;;5029595;28;20045;-82
2022/01/17 03:55:34;;;;;;;14.70;2.20;;;4.80;99.90;;;;;;5029511;28;20056;-85
2022/01/17 03:58:01;;;;;;;18.58;2.28;;;4.80;99.90;;;;;;5028680;28;20492;-83
2022/01/17 04:00:30;;;;;;;16.05;2.50;;;4.80;99.90;;;;;;5028243;28;20049;-83
2022/01/17 04:02:56;;;;;;;27.60;2.15;;;4.80;99.90;;;;;;5027345;28;20081;-83
2022/01/17 04:05:22;;;;;;;22.98;2.20;;;4.90;99.90;;;;;;5028606;28;20037;-82
2022/01/17 04:07:48;;;;;;;16.55;2.22;;;4.80;99.90;;;;;;5028628;28;20082;-80
2022/01/17 04:10:15;;;;;;;18.63;2.83;;;4.80;99.90;;;;;;5029753;28;20033;-81
2022/01/17 04:12:41;;;;;;;18.02;1.67;;;4.90;99.90;;;;;;5027784;28;20631;-81
2022/01/17 04:15:08;;;;;;;19.95;2.05;;;4.80;99.90;;;;;;5029811;28;20377;-82
2022/01/17 04:17:34;;;;;;;18.40;2.88;;;4.80;99.90;;;;;;5027600;28;20046;-82
2022/01/17 04:20:06;;;;;;;17.90;2.00;;;4.80;99.90;;;;;;5028582;28;20543;-84
2022/01/17 04:22:40;;;;;;;16.83;2.45;;;4.80;99.90;;;;;;5012148;28;20084;-81
2022/01/17 04:25:06;;;;;;;14.18;1.98;;;4.80;99.90;;;;;;5028288;28;20414;-83
2022/01/17 04:27:32;;;;;;;16.77;2.38;;;4.90;99.90;;;;;;5033532;28;20142;-85
2022/01/17 04:29:58;;;;;;;23.58;2.72;;;4.90;99.90;;;;;;5033191;28;20080;-83
2022/01/17 04:32:24;;;;;;;18.38;2.67;;;4.90;99.90;;;;;;5032106;28;20479;-82
2022/01/17 04:34:50;;;;;;;13.95;1.95;;;4.90;99.90;;;;;;5032960;28;20042;-83
2022/01/17 04:37:16;;;;;;;17.38;2.33;;;4.90;99.90;;;;;;5033066;28;20049;-83
2022/01/17 04:39:42;;;;;;;12.85;2.03;;;5.00;99.90;;;;;;5033017;28;20095;-82
2022/01/17 04:42:12;;;;;;;18.17;2.42;;;5.10;99.90;;;;;;5032578;28;20164;-83
2022/01/17 04:47:26;;;;;;;16.30;2.20;;;5.50;99.90;;;;;;5031655;28;20133;-81
2022/01/17 04:49:52;;;;;;;24.02;3.13;;;5.10;99.90;;;;;;5031438;28;20547;-79
2022/01/17 04:52:18;;;;;;;23.98;2.72;;;5.30;99.90;;;;;;5030885;28;20067;-81
2022/01/17 04:54:51;;;;;;;15.38;2.00;;;5.30;99.90;;;;;;5032801;28;20037;-81
2022/01/17 04:57:17;;;;;;;14.15;2.67;;;5.60;99.90;;;;;;5031093;28;20065;-80
2022/01/17 04:59:42;;;;;;;30.25;2.83;;;5.40;99.90;;;;;;5032811;28;20050;-81
2022/01/17 05:02:09;;;;;;;24.50;3.22;;;5.40;99.90;;;;;;5031052;28;20053;-80
2022/01/17 05:04:35;;;;;;;18.23;2.65;;;5.40;99.90;;;;;;5032891;28;20038;-81
2022/01/17 05:07:00;;;;;;;20.00;2.40;;;5.50;99.90;;;;;;5032354;28;20179;-81
2022/01/17 05:09:26;;;;;;;16.38;2.55;;;5.50;99.90;;;;;;5024528;28;20124;-81
2022/01/17 05:11:52;;;;;;;22.90;3.17;;;5.60;99.90;;;;;;5032323;28;20052;-81
2022/01/17 05:14:18;;;;;;;16.40;2.00;;;5.60;99.90;;;;;;5032328;28;20056;-80
2022/01/17 05:17:01;;;;;;;25.92;3.22;;;5.70;99.90;;;;;;5031206;28;20050;-81
2022/01/17 05:22:11;;;;;;;25.60;3.42;;;6.30;99.90;;;;;;5029240;28;20503;-81
2022/01/17 05:24:37;;;;;;;19.85;2.78;;;5.70;99.90;;;;;;5032536;28;20073;-81
2022/01/17 05:27:03;;;;;;;21.90;3.25;;;5.70;99.90;;;;;;5032482;28;20094;-81
2022/01/17 05:29:29;;;;;;;18.42;3.03;;;5.70;99.90;;;;;;5031916;28;20053;-81
2022/01/17 05:32:00;;;;;;;28.83;3.22;;;6.40;99.90;;;;;;5032279;28;20045;-81
2022/01/17 05:34:26;;;;;;;22.05;3.55;;;5.70;99.90;;;;;;5013680;28;20069;-81
2022/01/17 05:36:54;;;;;;;19.50;3.20;;;5.80;99.90;;;;;;5030225;28;20053;-81
2022/01/17 05:39:20;;;;;;;16.73;2.97;;;6.40;99.90;;;;;;5029234;28;20120;-82
2022/01/17 05:41:45;;;;;;;15.13;3.22;;;5.80;99.90;;;;;;5030545;28;20187;-82
2022/01/17 05:44:11;;;;;;;18.60;2.97;;;5.80;99.90;;;;;;5031791;28;20053;-81
2022/01/17 05:46:37;;;;;;;22.60;3.20;;;5.80;99.90;;;;;;5031691;28;20052;-83
2022/01/17 05:49:03;;;;;;;25.20;3.30;;;6.50;99.90;;;;;;5031840;28;20064;-82
2022/01/17 05:51:29;;;;;;;23.60;4.05;;;6.50;99.90;;;;;;5030963;28;20049;-80
2022/01/17 05:53:54;;;;;;;21.70;3.78;;;5.90;99.90;;;;;;5031674;28;20051;-83
2022/01/17 05:56:20;;;;;;;32.13;4.10;;;5.90;99.90;;;;;;5014015;28;20100;-84
2022/01/17 05:58:46;;;;;;;24.42;3.35;;;5.90;99.90;;;;;;5030896;28;20080;-81
2022/01/17 06:01:13;;;;;;;26.20;3.42;;;5.90;99.90;;;;;;5030517;28;20570;-82
2022/01/17 06:03:39;;;;;;;25.60;3.95;;;5.90;99.90;;;;;;5031110;28;20064;-82
2022/01/17 06:06:05;;;;;;;22.45;3.65;;;6.00;99.90;;;;;;5031751;28;20496;-83
2022/01/17 06:08:31;;;;;;;19.15;3.53;;;5.90;99.90;;;;;;5031188;28;20120;-82
2022/01/17 06:10:57;;;;;;;21.92;3.70;;;5.90;99.90;;;;;;5029721;28;20187;-81
2022/01/17 06:13:22;;;;;;;19.35;4.18;;;6.00;99.90;;;;;;5030353;28;20041;-83
2022/01/17 06:15:48;;;;;;;25.13;3.60;;;5.90;99.90;;;;;;5030908;28;20516;-81
2022/01/17 06:18:13;;;;;;;26.15;4.65;;;6.80;99.90;;;;;;5029933;28;20049;-82
2022/01/17 06:20:39;;;;;;;31.13;4.88;;;5.90;99.90;;;;;;5013719;28;20049;-81
2022/01/17 06:23:05;;;;;;;19.88;3.92;;;5.90;99.90;;;;;;5029976;28;20053;-82
2022/01/17 06:25:30;;;;;;;25.42;3.75;;;5.90;99.90;;;;;;5012793;28;20140;-81
2022/01/17 06:27:56;;;;;;;20.02;4.00;;;5.90;99.90;;;;;;5029420;28;20053;-81
2022/01/17 06:30:22;;;;;;;19.20;2.78;;;5.90;99.90;;;;;;5030523;28;20083;-82
2022/01/17 06:32:47;;;;;;;33.58;4.07;;;6.00;99.90;;;;;;5030859;28;20049;-82
2022/01/17 06:35:13;;;;;;;29.42;4.22;;;5.90;99.90;;;;;;5029378;28;20046;-80
2022/01/17 06:37:39;;;;;;;21.55;4.70;;;5.90;99.90;;;;;;5030993;28;20124;-81
2022/01/17 06:40:07;;;;;;;25.38;3.80;;;6.70;99.90;;;;;;5030302;28;20041;-81
2022/01/17 06:42:36;;;;;;;30.85;4.10;;;5.90;99.90;;;;;;5030626;28;20049;-82
2022/01/17 06:45:04;;;;;;;26.40;3.92;;;5.90;99.90;;;;;;5028971;28;20049;-82
2022/01/17 06:47:33;;;;;;;21.58;4.00;;;5.90;99.90;;;;;;5030474;28;20053;-81
2022/01/17 06:49:59;;;;;;;28.63;3.72;;;5.90;99.90;;;;;;5030174;28;20053;-82
2022/01/17 06:52:25;;;;;;;27.90;4.35;;;5.90;99.90;;;;;;5030488;28;20065;-82
2022/01/17 06:54:52;;;;;;;28.00;4.45;;;6.60;99.90;;;;;;5030625;28;20092;-81
2022/01/17 06:57:19;;;;;;;40.90;4.32;;;5.90;99.90;;;;;;5029536;28;20441;-81
2022/01/17 06:59:45;;;;;;;39.08;4.80;;;5.90;99.90;;;;;;5030196;28;20056;-81
2022/01/17 07:02:11;;;;;;;24.23;4.28;;;6.00;99.90;;;;;;5029841;28;20049;-79
2022/01/17 07:04:36;;;;;;;29.02;4.53;;;6.00;99.90;;;;;;5030332;28;20041;-82
2022/01/17 07:07:03;;;;;;;31.80;4.53;;;6.00;99.90;;;;;;5012993;28;20052;-81
2022/01/17 07:09:29;;;;;;;29.15;5.15;;;6.00;99.90;;;;;;5028794;28;20119;-81
2022/01/17 07:11:58;;;;;;;33.83;4.63;;;6.00;99.90;;;;;;5030375;28;20804;-81
2022/01/17 07:14:26;;;;;;;35.45;3.95;;;6.00;99.90;;;;;;5029946;28;20077;-82
2022/01/17 07:16:52;;;;;;;29.42;4.10;;;6.00;99.90;;;;;;5030387;28;20037;-81
2022/01/17 07:19:17;;;;;;;27.55;4.97;;;6.00;99.90;;;;;;5028853;28;20065;-81
2022/01/17 07:21:43;;;;;;;30.10;4.40;;;6.00;99.90;;;;;;5030004;28;20077;-80
2022/01/17 07:24:09;;;;;;;28.27;4.50;;;6.10;99.90;;;;;;5030198;28;20037;-85
2022/01/17 07:26:34;;;;;;;31.52;4.63;;;6.00;99.90;;;;;;5029932;28;20107;-81
2022/01/17 07:29:01;;;;;;;37.25;4.85;;;6.00;99.90;;;;;;5029741;28;20041;-81
2022/01/17 07:31:26;;;;;;;27.88;4.00;;;6.80;99.90;;;;;;5029914;28;20519;-80
2022/01/17 07:33:52;;;;;;;32.08;4.40;;;6.10;99.90;;;;;;5030151;28;20033;-81
2022/01/17 07:36:19;;;;;;;40.00;5.13;;;7.00;99.90;;;;;;5028935;28;20098;-84
2022/01/17 07:38:48;;;;;;;35.45;4.60;;;6.10;99.90;;;;;;5028013;28;20045;-80
2022/01/17 07:41:14;;;;;;;34.33;3.78;;;6.10;99.90;;;;;;5028156;28;20132;-81
2022/01/17 07:43:41;;;;;;;32.80;4.78;;;6.20;99.90;;;;;;5029513;28;20046;-79
2022/01/17 07:46:17;;;;;;;37.97;4.45;;;6.20;99.90;;;;;;5029726;28;20057;-80
2022/01/17 07:48:57;;;;;;;27.50;4.35;;;6.20;99.90;;;;;;5029980;28;20049;-80
2022/01/17 07:51:24;;;;;;;32.53;4.32;;;6.20;99.90;;;;;;5012036;28;20124;-81
2022/01/17 07:53:50;;;;;;;30.70;3.90;;;6.20;99.90;;;;;;5026795;28;20049;-82
2022/01/17 07:56:16;;;;;;;36.17;5.03;;;6.30;99.90;;;;;;5028393;28;20625;-81
2022/01/17 07:58:42;;;;;;;32.05;4.68;;;6.40;99.90;;;;;;5028246;28;20132;-84
2022/01/17 08:01:08;;;;;;;34.00;4.15;;;6.30;99.90;;;;;;5031391;28;20135;-82
2022/01/17 08:03:34;;;;;;;35.33;4.25;;;6.30;99.90;;;;;;5034161;28;20034;-83
2022/01/17 08:06:00;;;;;;;37.50;4.78;;;6.40;99.90;;;;;;5033714;28;20056;-87
2022/01/17 08:08:26;;;;;;;35.00;4.63;;;6.40;99.90;;;;;;5032679;28;20045;-86
2022/01/17 08:10:52;;;;;;;32.55;4.95;;;6.40;99.90;;;;;;5033351;28;20508;-80
2022/01/17 08:13:18;;;;;;;29.23;4.43;;;6.40;99.90;;;;;;5034148;28;20033;-81
2022/01/17 08:15:45;;;;;;;44.08;4.90;;;6.50;99.90;;;;;;5033082;28;20053;-80
2022/01/17 08:18:11;;;;;;;29.70;4.03;;;6.60;99.90;;;;;;5032412;28;20034;-81
2022/01/17 08:20:37;;;;;;;35.05;4.55;;;6.60;99.90;;;;;;5033472;28;20042;-81
2022/01/17 08:23:03;;;;;;;44.05;5.38;;;6.60;99.90;;;;;;5032161;28;20390;-82
2022/01/17 08:25:29;;;;;;;30.92;4.88;;;6.60;99.90;;;;;;5033198;28;20473;-82
2022/01/17 08:27:55;;;;;;;39.45;5.40;;;6.60;99.90;;;;;;5021170;28;20493;-81
2022/01/17 08:30:21;;;;;;;37.13;4.75;;;6.70;99.90;;;;;;5024862;28;20046;-82
2022/01/17 08:32:46;;;;;;;41.75;5.15;;;6.70;99.90;;;;;;5033379;28;20049;-81
2022/01/17 08:35:12;;;;;;;42.25;5.20;;;6.70;99.90;;;;;;5033129;28;20124;-82
2022/01/17 08:37:38;;;;;;;35.55;4.15;;;6.70;99.90;;;;;;5031689;28;20125;-81
2022/01/17 08:40:07;;;;;;;42.45;5.05;;;6.80;99.90;;;;;;5033191;28;20053;-81
2022/01/17 08:42:36;;;;;;;46.63;5.38;;;6.80;99.90;;;;;;5031577;28;20503;-83
2022/01/17 08:45:03;;;;;;;35.70;4.88;;;7.70;99.90;;;;;;5033070;28;20049;-81
2022/01/17 08:47:28;;;;;;;40.97;6.40;;;6.90;99.90;;;;;;5032528;28;20442;-82
2022/01/17 08:49:54;;;;;;;50.95;5.45;;;6.90;99.90;;;;;;5014913;28;20136;-80
2022/01/17 08:52:20;;;;;;;32.17;4.20;;;6.90;99.90;;;;;;5031374;28;20041;-83
2022/01/17 08:54:46;;;;;;;29.55;5.00;;;7.00;99.90;;;;;;5031529;28;20052;-80
2022/01/17 08:57:11;;;;;;;45.53;6.07;;;7.00;99.90;;;;;;5032626;28;20061;-81
2022/01/17 08:59:37;;;;;;;33.38;5.35;;;7.20;99.90;;;;;;5031304;28;20413;-82
2022/01/17 09:02:03;;;;;;;36.03;4.63;;;7.10;99.90;;;;;;5032755;28;20042;-82
2022/01/17 09:04:29;;;;;;;41.72;5.97;;;7.10;99.90;;;;;;5031991;28;20488;-81
2022/01/17 09:06:55;;;;;;;34.40;4.72;;;7.20;99.90;;;;;;5016349;28;20116;-85
2022/01/17 09:09:21;;;;;;;47.63;6.20;;;7.30;99.90;;;;;;5016337;28;20129;-80
2022/01/17 09:11:46;;;;;;;36.58;4.90;;;7.30;99.90;;;;;;5031057;28;20053;-78
2022/01/17 09:14:12;;;;;;;36.80;4.78;;;7.30;99.90;;;;;;5033868;28;20118;-81
2022/01/17 09:16:38;;;;;;;45.28;5.38;;;7.80;99.90;;;;;;5032789;28;20554;-82
2022/01/17 09:19:05;;;;;;;39.65;5.00;;;7.40;99.90;;;;;;5032902;28;20399;-80
2022/01/17 09:21:31;;;;;;;35.35;4.65;;;7.50;99.90;;;;;;5033599;28;20050;-80
2022/01/17 09:23:58;;;;;;;43.17;5.65;;;7.80;99.90;;;;;;5033342;28;20052;-80
2022/01/17 09:26:25;;;;;;;42.97;5.30;;;7.50;99.90;;;;;;5032908;28;20058;-78
2022/01/17 09:28:55;;;;;;;37.45;5.13;;;7.60;99.90;;;;;;5032397;28;20064;-80
2022/01/17 09:31:22;;;;;;;37.22;6.03;;;7.60;99.90;;;;;;5032403;28;20629;-79
2022/01/17 09:33:49;;;;;;;36.30;5.07;;;7.90;99.90;;;;;;5031917;28;20087;-78
2022/01/17 09:36:14;;;;;;;40.15;5.32;;;7.60;99.90;;;;;;5030822;28;20052;-79
2022/01/17 09:38:40;;;;;;;35.97;6.25;;;7.70;99.90;;;;;;5031956;28;20037;-79
2022/01/17 09:41:06;;;;;;;45.13;6.07;;;7.70;99.90;;;;;;5025414;28;20859;-79
2022/01/17 09:43:34;;;;;;;43.15;5.72;;;7.70;99.90;;;;;;5030829;28;20120;-79
2022/01/17 09:45:59;;;;;;;49.17;6.78;;;8.00;99.90;;;;;;5030409;28;20073;-80
2022/01/17 09:48:34;;;;;;;40.72;6.40;;;7.80;99.90;;;;;;5031483;28;20077;-79
2022/01/17 09:51:17;;;;;;;44.20;5.63;;;7.90;99.90;;;;;;5030083;28;20045;-80
2022/01/17 09:53:44;;;;;;;33.97;6.25;;;8.00;99.90;;;;;;5013672;28;20056;-79
2022/01/17 09:56:12;;;;;;;35.55;6.00;;;8.20;99.90;;;;;;5031793;28;20092;-79
2022/01/17 09:58:40;;;;;;;36.38;6.30;;;8.10;99.90;;;;;;5030494;28;20057;-80
2022/01/17 10:01:08;;;;;;;32.47;4.97;;;8.50;99.90;;;;;;5030434;28;20053;-79
2022/01/17 10:03:34;;;;;;;45.15;5.82;;;8.10;99.90;;;;;;5031999;28;20037;-79
2022/01/17 10:06:00;;;;;;;37.28;5.68;;;8.20;99.90;;;;;;5029836;28;20072;-80
2022/01/17 10:08:27;;;;;;;39.40;5.55;;;8.70;99.90;;;;;;5031908;28;20691;-79
2022/01/17 10:11:00;;;;;;;51.92;6.60;;;8.30;99.90;;;;;;5031769;28;20412;-78
2022/01/17 10:13:34;;;;;;;52.55;6.30;;;8.70;99.90;;;;;;5032202;28;20053;-80
2022/01/17 10:15:59;;;;;;;41.50;6.82;;;8.30;99.90;;;;;;5030701;28;20087;-79
2022/01/17 10:18:36;;;;;;;48.33;6.70;;;8.80;99.90;;;;;;5029432;28;20045;-79
2022/01/17 10:21:16;;;;;;;55.70;8.43;;;8.40;99.90;;;;;;5038410;28;20052;-81
2022/01/17 10:34:57;;;;;;;50.25;6.10;;;9.00;99.90;;;;;;5030480;28;20427;-79
2022/01/17 10:37:25;;;;;;;42.38;6.28;;;8.70;99.90;;;;;;5030087;28;20053;-79
2022/01/17 10:39:59;;;;;;;42.22;6.25;;;8.90;99.90;;;;;;5031778;28;20049;-80
2022/01/17 10:42:41;;;;;;;50.40;7.03;;;8.70;99.90;;;;;;5009944;28;20500;-79
2022/01/17 10:45:14;;;;;;;54.30;6.35;;;8.70;99.90;;;;;;5026410;28;20089;-82
2022/01/17 10:47:43;;;;;;;45.00;6.35;;;8.70;99.90;;;;;;5011674;28;20041;-80
2022/01/17 10:50:09;;;;;;;44.72;6.10;;;8.80;99.90;;;;;;5011265;28;20046;-80
2022/01/17 10:52:38;;;;;;;49.85;7.38;;;8.80;99.90;;;;;;5010958;28;20053;-79
2022/01/17 10:55:10;;;;;;;51.40;7.38;;;9.20;99.90;;;;;;5027371;28;20092;-79
2022/01/17 10:57:43;;;;;;;58.42;6.90;;;8.70;99.90;;;;;;5029944;28;20061;-78
2022/01/17 11:00:16;;;;;;;43.85;7.10;;;8.80;99.90;;;;;;5029506;28;20041;-80
2022/01/17 11:02:46;;;;;;;45.83;7.65;;;8.70;99.90;;;;;;5029830;28;20512;-78
2022/01/17 11:05:14;;;;;;;52.08;7.40;;;8.70;99.90;;;;;;5029253;28;20085;-81
2022/01/17 11:07:44;;;;;;;55.92;7.38;;;8.70;99.90;;;;;;5029365;28;20076;-79
2022/01/17 11:10:21;;;;;;;62.70;8.20;;;8.80;99.90;;;;;;5030907;28;20053;-82
2022/01/17 11:12:49;;;;;;;49.08;6.43;;;8.80;99.90;;;;;;5030508;28;20049;-79
2022/01/17 11:15:15;;;;;;;42.97;7.35;;;8.90;99.90;;;;;;5030772;28;20051;-78
2022/01/17 11:17:48;;;;;;;45.83;7.43;;;9.20;99.90;;;;;;5030483;28;20045;-79
2022/01/17 11:20:14;;;;;;;55.00;7.70;;;9.30;99.90;;;;;;5030417;28;20060;-78
2022/01/17 11:22:42;;;;;;;52.17;8.43;;;9.00;99.90;;;;;;5029723;28;20052;-81
2022/01/17 11:25:14;;;;;;;55.78;7.90;;;9.10;99.90;;;;;;5030356;28;20037;-78
2022/01/17 11:27:41;;;;;;;46.42;7.43;;;9.60;99.90;;;;;;5029412;28;20060;-82
2022/01/17 11:30:08;;;;;;;46.78;7.88;;;9.30;99.90;;;;;;5030892;28;20515;-77
2022/01/17 11:32:34;;;;;;;51.65;7.53;;;9.50;99.90;;;;;;5030446;28;20045;-78
2022/01/17 11:35:04;;;;;;;55.53;7.95;;;9.50;99.90;;;;;;5028883;28;20064;-78
2022/01/17 11:37:35;;;;;;;52.28;7.53;;;9.60;99.90;;;;;;5023553;28;20045;-76
2022/01/17 11:40:01;;;;;;;42.03;7.00;;;9.60;99.90;;;;;;5027767;28;20064;-78
2022/01/17 11:42:48;;;;;;;60.70;8.15;;;9.70;99.90;;;;;;5029011;28;20049;-78
2022/01/17 11:45:23;;;;;;;43.30;7.22;;;9.80;99.90;;;;;;5029611;28;20400;-77
2022/01/17 11:48:07;;;;;;;47.60;7.95;;;9.90;99.90;;;;;;5021859;28;20042;-77
2022/01/17 11:50:37;;;;;;;48.30;8.23;;;10.00;99.90;;;;;;5028972;28;20164;-77
2022/01/17 11:53:22;;;;;;;44.45;6.90;;;10.00;99.90;;;;;;5028692;28;20059;-77
2022/01/17 11:55:50;;;;;;;55.97;9.15;;;10.00;99.90;;;;;;5021729;28;20046;-77
2022/01/17 11:58:18;;;;;;;54.83;8.07;;;10.00;99.90;;;;;;5029082;28;20072;-78
2022/01/17 12:00:44;;;;;;;46.65;7.90;;;10.30;99.90;;;;;;5027479;28;20723;-77
2022/01/17 12:03:22;;;;;;;54.08;7.40;;;9.80;99.90;;;;;;5028690;28;20040;-78
2022/01/17 12:05:48;;;;;;;53.35;8.25;;;10.00;99.90;;;;;;5027166;28;20128;-77
2022/01/17 12:08:23;;;;;;;59.80;8.18;;;10.60;99.90;;;;;;5026311;28;20125;-77
2022/01/17 12:11:03;;;;;;;47.45;7.40;;;9.90;99.90;;;;;;5028057;28;20064;-77
2022/01/17 12:13:39;;;;;;;49.17;7.40;;;10.00;99.90;;;;;;5028713;28;20399;-82
2022/01/17 12:16:27;;;;;;;53.65;7.93;;;10.00;99.90;;;;;;5029214;28;20053;-86
2022/01/17 12:18:54;;;;;;;55.63;7.28;;;9.90;99.90;;;;;;5030411;28;20107;-79
2022/01/17 12:21:33;;;;;;;50.50;7.88;;;9.90;99.90;;;;;;5027846;28;20077;-80
2022/01/17 12:26:53;;;;;;;60.97;9.43;;;9.80;99.90;;;;;;5027193;28;20053;-79
2022/01/17 12:29:34;;;;;;;55.30;9.23;;;9.70;99.90;;;;;;5029465;28;20072;-84
2022/01/17 12:32:00;;;;;;;47.35;8.13;;;9.60;99.90;;;;;;5029382;28;20041;-80
2022/01/17 12:34:29;;;;;;;61.60;9.77;;;9.60;99.90;;;;;;5028881;28;20072;-78
2022/01/17 12:36:58;;;;;;;50.33;7.63;;;9.60;99.90;;;;;;5028668;28;20060;-78
2022/01/17 12:39:28;;;;;;;55.55;7.55;;;9.50;99.90;;;;;;5029229;28;20858;-78
2022/01/17 12:42:00;;;;;;;51.58;7.80;;;9.40;99.90;;;;;;5027570;28;20539;-78
2022/01/17 12:44:28;;;;;;;63.28;8.75;;;9.40;99.90;;;;;;5024030;28;20046;-78
2022/01/17 12:46:57;;;;;;;47.38;7.18;;;9.40;99.90;;;;;;5029600;28;20049;-77
2022/01/17 12:49:24;;;;;;;46.88;7.20;;;9.30;99.90;;;;;;5031711;28;20045;-82
2022/01/17 12:51:54;;;;;;;67.60;8.75;;;9.30;99.90;;;;;;5030011;28;20053;-78
2022/01/17 12:54:25;;;;;;;52.40;7.50;;;9.20;99.90;;;;;;5031781;28;20065;-79
2022/01/17 12:56:52;;;;;;;52.25;8.02;;;9.20;99.90;;;;;;5031329;28;20053;-78
2022/01/17 12:59:19;;;;;;;54.08;9.48;;;9.20;99.90;;;;;;5030237;28;20092;-76
2022/01/17 13:01:47;;;;;;;51.58;8.10;;;9.20;99.90;;;;;;5031538;28;20057;-77
2022/01/17 13:04:14;;;;;;;47.97;7.63;;;9.10;99.90;;;;;;5031960;28;20046;-80
2022/01/17 13:06:41;;;;;;;49.38;7.40;;;9.20;99.90;;;;;;5032454;28;20052;-81
2022/01/17 13:09:15;;;;;;;47.45;7.38;;;9.20;99.90;;;;;;5030504;28;20055;-77
2022/01/17 13:11:43;;;;;;;59.40;8.63;;;9.20;99.90;;;;;;5047649;28;20061;-79
2022/01/17 13:14:10;;;;;;;50.42;8.70;;;9.20;99.90;;;;;;5030905;28;20049;-82
2022/01/17 13:16:39;;;;;;;48.35;7.35;;;9.20;99.90;;;;;;5031789;28;20072;-79
2022/01/17 13:19:06;;;;;;;44.35;7.63;;;9.20;99.90;;;;;;5025654;28;20526;-80